Time;durP1;ratioP1;P1;durP2;ratioP2;P2;SDS_P1;SDS_P2;PMS_P1;PMS_P2;Temp;Humidity;BMP_temperature;BMP_pressure;BME280_temperature;BME280_humidity;BME280_pressure;Samples;Min_cycle;Max_cycle;Signal;HPM_P1;HPM_P2
2022/05/26 00:01:54;;;;;;;;;;;;;;;;;;5035461;28;28325;-84
2022/05/26 00:04:27;;;;;;;;;;;;;;;;;;5037822;28;28440;-84
2022/05/26 00:06:52;;;;;;;;;;;;;;;;;;5037911;28;28307;-84
2022/05/26 00:09:18;;;;;;;;;;;;;;;;;;5037230;28;29086;-84
2022/05/26 00:11:43;;;;;;;;;;;;;;;;;;5037737;28;28298;-84
2022/05/26 00:14:08;;;;;;;;;;;;;;;;;;5037028;28;27818;-84
2022/05/26 00:16:33;;;;;;;;;;;;;;;;;;5037633;28;28501;-85
2022/05/26 00:18:58;;;;;;;;;;;;;;;;;;5037803;28;28285;-84
2022/05/26 00:21:23;;;;;;;;;;;;;;;;;;5037454;28;28313;-84
2022/05/26 00:23:48;;;;;;;;;;;;;;;;;;5052907;28;28384;-84
2022/05/26 00:26:14;;;;;;;;;;;;;;;;;;5037653;28;28319;-85
2022/05/26 00:28:39;;;;;;;;;;;;;;;;;;5036679;28;28785;-84
2022/05/26 00:31:04;;;;;;;;;;;;;;;;;;5019587;28;28803;-84
2022/05/26 00:33:29;;;;;;;;;;;;;;;;;;5037256;28;28398;-84
2022/05/26 00:35:54;;;;;;;;;;;;;;;;;;5037755;28;28513;-84
2022/05/26 00:38:20;;;;;;;;;;;;;;;;;;5036916;28;28359;-84
2022/05/26 00:40:45;;;;;;;;;;;;;;;;;;5037005;28;28420;-84
2022/05/26 00:43:10;;;;;;;;;;;;;;;;;;5037061;28;28333;-84
2022/05/26 00:45:37;;;;;;;;;;;;;;;;;;5037271;28;28444;-84
2022/05/26 00:48:02;;;;;;;;;;;;;;;;;;5037196;28;28727;-84
2022/05/26 00:50:27;;;;;;;;;;;;;;;;;;5037268;28;28382;-84
2022/05/26 00:52:52;;;;;;;;;;;;;;;;;;5036852;28;28539;-84
2022/05/26 00:55:17;;;;;;;;;;;;;;;;;;5037396;28;28329;-84
2022/05/26 00:57:42;;;;;;;;;;;;;;;;;;5036957;28;28588;-84
2022/05/26 01:00:07;;;;;;;;;;;;;;;;;;5036758;28;28467;-84
2022/05/26 01:02:34;;;;;;;;;;;;;;;;;;5037034;28;28336;-84
2022/05/26 01:04:59;;;;;;;;;;;;;;;;;;5037188;28;28452;-84
2022/05/26 01:07:24;;;;;;;;;;;;;;;;;;5036942;28;28620;-84
2022/05/26 01:09:49;;;;;;;;;;;;;;;;;;5036609;28;28308;-84
2022/05/26 01:12:14;;;;;;;;;;;;;;;;;;5036772;28;28416;-84
2022/05/26 01:14:39;;;;;;;;;;;;;;;;;;5035773;28;28384;-84
2022/05/26 01:17:04;;;;;;;;;;;;;;;;;;5036604;28;28542;-84
2022/05/26 01:19:29;;;;;;;;;;;;;;;;;;5036746;28;28342;-84
2022/05/26 01:21:54;;;;;;;;;;;;;;;;;;5036559;28;28329;-84
2022/05/26 01:24:20;;;;;;;;;;;;;;;;;;5036928;28;28321;-84
2022/05/26 01:26:45;;;;;;;;;;;;;;;;;;5036340;28;28465;-84
2022/05/26 01:29:10;;;;;;;;;;;;;;;;;;5035737;28;28269;-83
2022/05/26 01:31:38;;;;;;;;;;;;;;;;;;5036275;28;28250;-83
2022/05/26 01:34:03;;;;;;;;;;;;;;;;;;5036442;28;28510;-83
2022/05/26 01:36:29;;;;;;;;;;;;;;;;;;5036636;28;29123;-83
2022/05/26 01:38:54;;;;;;;;;;;;;;;;;;5036506;28;28448;-83
2022/05/26 01:41:19;;;;;;;;;;;;;;;;;;5036506;28;28404;-83
2022/05/26 01:43:44;;;;;;;;;;;;;;;;;;5036271;28;28530;-84
2022/05/26 01:46:09;;;;;;;;;;;;;;;;;;5036150;28;28396;-83
2022/05/26 01:48:35;;;;;;;;;;;;;;;;;;5035856;28;28645;-83
2022/05/26 01:51:00;;;;;;;;;;;;;;;;;;5035087;28;28397;-83
2022/05/26 01:53:25;;;;;;;;;;;;;;;;;;5036325;28;28435;-83
2022/05/26 01:55:50;;;;;;;;;;;;;;;;;;5035768;28;28446;-83
2022/05/26 01:58:18;;;;;;;;;;;;;;;;;;5035640;28;28345;-83
2022/05/26 02:00:44;;;;;;;;;;;;;;;;;;5036341;28;28422;-83
2022/05/26 02:03:09;;;;;;;;;;;;;;;;;;5018165;28;28536;-84
2022/05/26 02:05:34;;;;;;;;;;;;;;;;;;5035882;28;29302;-83
2022/05/26 02:07:59;;;;;;;;;;;;;;;;;;5023768;28;28588;-84
2022/05/26 02:10:25;;;;;;;;;;;;;;;;;;5015788;28;28419;-84
2022/05/26 02:12:50;;;;;;;;;;;;;;;;;;5016474;28;28389;-83
2022/05/26 02:15:16;;;;;;;;;;;;;;;;;;5015772;28;29313;-84
2022/05/26 02:17:41;;;;;;;;;;;;;;;;;;5023186;28;28454;-83
2022/05/26 02:20:06;;;;;;;;;;;;;;;;;;5035613;28;28392;-83
2022/05/26 02:22:31;;;;;;;;;;;;;;;;;;5035867;28;28274;-83
2022/05/26 02:24:56;;;;;;;;;;;;;;;;;;5035172;28;28301;-83
2022/05/26 02:27:21;;;;;;;;;;;;;;;;;;5034510;28;28650;-83
2022/05/26 02:29:52;;;;;;;;;;;;;;;;;;5035258;28;28463;-83
2022/05/26 02:32:17;;;;;;;;;;;;;;;;;;5035982;28;28353;-83
2022/05/26 02:34:44;;;;;;;;;;;;;;;;;;5035384;28;28478;-83
2022/05/26 02:37:09;;;;;;;;;;;;;;;;;;5035727;28;28168;-83
2022/05/26 02:39:35;;;;;;;;;;;;;;;;;;5035506;28;28386;-83
2022/05/26 02:42:00;;;;;;;;;;;;;;;;;;5035589;28;28369;-83
2022/05/26 02:44:26;;;;;;;;;;;;;;;;;;5034745;28;28481;-83
2022/05/26 02:46:52;;;;;;;;;;;;;;;;;;5035157;28;28241;-83
2022/05/26 02:49:17;;;;;;;;;;;;;;;;;;5034479;28;28361;-84
2022/05/26 02:51:45;;;;;;;;;;;;;;;;;;5035204;28;27777;-84
2022/05/26 02:54:10;;;;;;;;;;;;;;;;;;5035215;28;29726;-83
2022/05/26 02:56:35;;;;;;;;;;;;;;;;;;5034100;28;28435;-83
2022/05/26 02:59:00;;;;;;;;;;;;;;;;;;5017499;28;28447;-83
2022/05/26 03:01:26;;;;;;;;;;;;;;;;;;5035466;28;28473;-83
2022/05/26 03:03:51;;;;;;;;;;;;;;;;;;5034906;28;28546;-83
2022/05/26 03:06:16;;;;;;;;;;;;;;;;;;5035166;28;28527;-83
2022/05/26 03:08:41;;;;;;;;;;;;;;;;;;5034633;28;28396;-83
2022/05/26 03:11:06;;;;;;;;;;;;;;;;;;5034893;28;28512;-84
2022/05/26 03:13:34;;;;;;;;;;;;;;;;;;5035087;28;28707;-84
2022/05/26 03:15:59;;;;;;;;;;;;;;;;;;5034700;28;28368;-83
2022/05/26 03:18:24;;;;;;;;;;;;;;;;;;5034701;28;28329;-84
2022/05/26 03:20:49;;;;;;;;;;;;;;;;;;5034970;28;28257;-84
2022/05/26 03:23:15;;;;;;;;;;;;;;;;;;5034730;28;28377;-83
2022/05/26 03:25:40;;;;;;;;;;;;;;;;;;5034477;28;28549;-83
2022/05/26 03:28:05;;;;;;;;;;;;;;;;;;5034243;28;28305;-84
2022/05/26 03:30:30;;;;;;;;;;;;;;;;;;5034891;28;28380;-84
2022/05/26 03:32:55;;;;;;;;;;;;;;;;;;5034688;28;28333;-83
2022/05/26 03:40:57;;;;;;;;;;;;;;;;;;5038020;28;28530;-83
2022/05/26 03:43:22;;;;;;;;;;;;;;;;;;5038078;28;28435;-83
2022/05/26 03:45:47;;;;;;;;;;;;;;;;;;5038111;28;28369;-84
2022/05/26 03:48:12;;;;;;;;;;;;;;;;;;5038508;28;28425;-84
2022/05/26 03:50:40;;;;;;;;;;;;;;;;;;5038218;28;28436;-84
2022/05/26 03:53:05;;;;;;;;;;;;;;;;;;5037253;28;28400;-84
2022/05/26 03:55:30;;;;;;;;;;;;;;;;;;5037966;28;28357;-84
2022/05/26 03:57:57;;;;;;;;;;;;;;;;;;5037448;28;28400;-83
2022/05/26 04:00:22;;;;;;;;;;;;;;;;;;5038259;28;28549;-84
2022/05/26 04:02:48;;;;;;;;;;;;;;;;;;5037762;28;28408;-83
2022/05/26 04:05:13;;;;;;;;;;;;;;;;;;5037867;28;28264;-84
2022/05/26 04:07:38;;;;;;;;;;;;;;;;;;5037148;28;28341;-84
2022/05/26 04:10:03;;;;;;;;;;;;;;;;;;5037827;28;28314;-84
2022/05/26 04:12:28;;;;;;;;;;;;;;;;;;5037667;28;28496;-84
2022/05/26 04:14:54;;;;;;;;;;;;;;;;;;5037558;28;28413;-84
2022/05/26 04:17:19;;;;;;;;;;;;;;;;;;5037966;28;28387;-83
2022/05/26 04:19:45;;;;;;;;;;;;;;;;;;5053081;28;28436;-84
2022/05/26 04:22:17;;;;;;;;;;;;;;;;;;5052000;28;28546;-84
2022/05/26 04:24:42;;;;;;;;;;;;;;;;;;5037860;28;28424;-83
2022/05/26 04:27:07;;;;;;;;;;;;;;;;;;5037218;28;28424;-84
2022/05/26 04:29:32;;;;;;;;;;;;;;;;;;5037596;28;28318;-84
2022/05/26 04:31:58;;;;;;;;;;;;;;;;;;5037427;28;28361;-84
2022/05/26 04:34:23;;;;;;;;;;;;;;;;;;5037149;28;29571;-84
2022/05/26 04:36:48;;;;;;;;;;;;;;;;;;5037129;28;28282;-83
2022/05/26 04:39:14;;;;;;;;;;;;;;;;;;5037270;28;28428;-84
2022/05/26 04:41:39;;;;;;;;;;;;;;;;;;5037069;28;28479;-84
2022/05/26 04:44:06;;;;;;;;;;;;;;;;;;5037389;28;31487;-83
2022/05/26 04:46:31;;;;;;;;;;;;;;;;;;5037356;28;28342;-83
2022/05/26 04:48:56;;;;;;;;;;;;;;;;;;5035799;28;27971;-84
2022/05/26 04:51:22;;;;;;;;;;;;;;;;;;5037184;28;28429;-84
2022/05/26 04:53:47;;;;;;;;;;;;;;;;;;5037036;28;28392;-84
2022/05/26 04:56:12;;;;;;;;;;;;;;;;;;5037144;28;28403;-83
2022/05/26 04:58:37;;;;;;;;;;;;;;;;;;5036267;28;28428;-83
2022/05/26 05:01:02;;;;;;;;;;;;;;;;;;5037176;28;29401;-84
2022/05/26 05:03:28;;;;;;;;;;;;;;;;;;5036739;28;28640;-83
2022/05/26 05:05:53;;;;;;;;;;;;;;;;;;5037093;28;28336;-83
2022/05/26 05:08:18;;;;;;;;;;;;;;;;;;5036829;28;28585;-84
2022/05/26 05:10:43;;;;;;;;;;;;;;;;;;5036465;28;29486;-84
2022/05/26 05:13:08;;;;;;;;;;;;;;;;;;5036363;28;28401;-83
2022/05/26 05:15:33;;;;;;;;;;;;;;;;;;5036589;28;28431;-84
2022/05/26 05:17:58;;;;;;;;;;;;;;;;;;5037028;28;28292;-83
2022/05/26 05:20:23;;;;;;;;;;;;;;;;;;5036735;28;28587;-84
2022/05/26 05:22:48;;;;;;;;;;;;;;;;;;5036382;28;28320;-84
2022/05/26 05:25:14;;;;;;;;;;;;;;;;;;5036802;28;28449;-84
2022/05/26 05:27:39;;;;;;;;;;;;;;;;;;5036651;28;28364;-84
2022/05/26 05:30:04;;;;;;;;;;;;;;;;;;5036492;28;28715;-83
2022/05/26 05:32:29;;;;;;;;;;;;;;;;;;5036129;28;28316;-84
2022/05/26 05:34:54;;;;;;;;;;;;;;;;;;5036407;28;28424;-84
2022/05/26 05:37:19;;;;;;;;;;;;;;;;;;5037817;28;28494;-84
2022/05/26 05:39:44;;;;;;;;;;;;;;;;;;5018334;28;29762;-83
2022/05/26 05:42:09;;;;;;;;;;;;;;;;;;5036620;28;28336;-83
2022/05/26 05:44:35;;;;;;;;;;;;;;;;;;5036158;28;28390;-83
2022/05/26 05:47:01;;;;;;;;;;;;;;;;;;5036412;28;28520;-84
2022/05/26 05:49:26;;;;;;;;;;;;;;;;;;5036437;28;29305;-83
2022/05/26 05:51:52;;;;;;;;;;;;;;;;;;5036173;28;28400;-84
2022/05/26 05:54:18;;;;;;;;;;;;;;;;;;5036140;28;28312;-83
2022/05/26 05:56:43;;;;;;;;;;;;;;;;;;5036178;28;28446;-84
2022/05/26 05:59:09;;;;;;;;;;;;;;;;;;5036108;28;28857;-84
2022/05/26 06:01:34;;;;;;;;;;;;;;;;;;5036753;28;28737;-84
2022/05/26 06:03:59;;;;;;;;;;;;;;;;;;5049863;28;28542;-83
2022/05/26 06:06:24;;;;;;;;;;;;;;;;;;5055560;28;30052;-84
2022/05/26 06:08:49;;;;;;;;;;;;;;;;;;5055556;28;29315;-84
2022/05/26 06:11:14;;;;;;;;;;;;;;;;;;5055805;28;28448;-84
2022/05/26 06:13:39;;;;;;;;;;;;;;;;;;5055718;28;28471;-83
2022/05/26 06:16:04;;;;;;;;;;;;;;;;;;5055756;28;35202;-84
2022/05/26 06:18:29;;;;;;;;;;;;;;;;;;5055794;28;28703;-84
2022/05/26 06:20:54;;;;;;;;;;;;;;;;;;5054033;28;28336;-84
2022/05/26 06:23:20;;;;;;;;;;;;;;;;;;5055924;28;28384;-84
2022/05/26 06:25:45;;;;;;;;;;;;;;;;;;5055799;28;28499;-84
2022/05/26 06:30:54;;;;;;;;;;;;;;;;;;5035726;28;28470;-83
2022/05/26 06:38:47;;;;;;;;;;;;;;;;;;5054824;28;28253;-84
2022/05/26 06:43:56;;;;;;;;;;;;;;;;;;5055386;28;28377;-84
2022/05/26 06:46:21;;;;;;;;;;;;;;;;;;5055500;28;28328;-84
2022/05/26 06:48:46;;;;;;;;;;;;;;;;;;5052449;28;28555;-84
2022/05/26 06:51:11;;;;;;;;;;;;;;;;;;5055305;28;28427;-84
2022/05/26 06:53:36;;;;;;;;;;;;;;;;;;5051085;28;28534;-84
2022/05/26 06:56:01;;;;;;;;;;;;;;;;;;5035569;28;28551;-84
2022/05/26 06:58:27;;;;;;;;;;;;;;;;;;5034888;28;29323;-84
2022/05/26 07:00:52;;;;;;;;;;;;;;;;;;5035251;28;28294;-84
2022/05/26 07:03:17;;;;;;;;;;;;;;;;;;5035508;28;28600;-84
2022/05/26 07:05:42;;;;;;;;;;;;;;;;;;5034937;28;28306;-84
2022/05/26 07:08:07;;;;;;;;;;;;;;;;;;5034842;28;28444;-83
2022/05/26 07:10:34;;;;;;;;;;;;;;;;;;5016715;28;28701;-83
2022/05/26 07:12:59;;;;;;;;;;;;;;;;;;5034402;28;29001;-84
2022/05/26 07:15:25;;;;;;;;;;;;;;;;;;5039442;28;28661;-84
2022/05/26 07:17:50;;;;;;;;;;;;;;;;;;5054951;28;28485;-83
2022/05/26 07:20:15;;;;;;;;;;;;;;;;;;5054854;28;28443;-83
2022/05/26 07:22:40;;;;;;;;;;;;;;;;;;5055067;28;28515;-84
2022/05/26 07:25:05;;;;;;;;;;;;;;;;;;5055006;28;28392;-84
2022/05/26 07:27:30;;;;;;;;;;;;;;;;;;5036310;28;28318;-84
2022/05/26 07:29:55;;;;;;;;;;;;;;;;;;5034671;28;28341;-84
2022/05/26 07:32:20;;;;;;;;;;;;;;;;;;5034987;28;28341;-85
2022/05/26 07:34:45;;;;;;;;;;;;;;;;;;5029622;28;28616;-83
2022/05/26 07:42:38;;;;;;;;;;;;;;;;;;5054855;28;28269;-83
2022/05/26 07:45:03;;;;;;;;;;;;;;;;;;5054153;28;28297;-83
2022/05/26 07:47:29;;;;;;;;;;;;;;;;;;5040331;28;28309;-84
2022/05/26 07:49:54;;;;;;;;;;;;;;;;;;5053490;28;28682;-84
2022/05/26 07:52:19;;;;;;;;;;;;;;;;;;5054450;28;28455;-85
2022/05/26 07:54:44;;;;;;;;;;;;;;;;;;5054529;28;28463;-84
2022/05/26 07:57:10;;;;;;;;;;;;;;;;;;5053583;28;28357;-86
2022/05/26 07:59:35;;;;;;;;;;;;;;;;;;5054480;28;28341;-86
2022/05/26 08:02:00;;;;;;;;;;;;;;;;;;5054423;28;28604;-86
2022/05/26 08:04:25;;;;;;;;;;;;;;;;;;5037642;28;28350;-86
2022/05/26 08:06:51;;;;;;;;;;;;;;;;;;5034610;28;28312;-86
2022/05/26 08:09:16;;;;;;;;;;;;;;;;;;5034025;28;28487;-84
2022/05/26 08:11:41;;;;;;;;;;;;;;;;;;5034356;28;28539;-88
2022/05/26 08:14:06;;;;;;;;;;;;;;;;;;5016378;28;28512;-86
2022/05/26 08:16:31;;;;;;;;;;;;;;;;;;5045387;28;29577;-90
2022/05/26 08:18:57;;;;;;;;;;;;;;;;;;5054654;28;28443;-91
2022/05/26 08:21:22;;;;;;;;;;;;;;;;;;5054160;28;28356;-86
2022/05/26 08:23:47;;;;;;;;;;;;;;;;;;5055272;28;28440;-85
2022/05/26 08:26:12;;;;;;;;;;;;;;;;;;5040486;28;28454;-86
2022/05/26 08:28:37;;;;;;;;;;;;;;;;;;5037253;28;28447;-86
2022/05/26 08:31:03;;;;;;;;;;;;;;;;;;5037647;28;28726;-85
2022/05/26 08:33:28;;;;;;;;;;;;;;;;;;5037391;28;28399;-84
2022/05/26 08:35:53;;;;;;;;;;;;;;;;;;5037735;28;28723;-85
2022/05/26 08:38:18;;;;;;;;;;;;;;;;;;5051267;28;28473;-85
2022/05/26 08:40:43;;;;;;;;;;;;;;;;;;5057218;28;28452;-85
2022/05/26 08:43:08;;;;;;;;;;;;;;;;;;5057542;28;28535;-85
2022/05/26 08:45:33;;;;;;;;;;;;;;;;;;5057020;28;29398;-85
2022/05/26 08:47:58;;;;;;;;;;;;;;;;;;5057461;28;28392;-88
2022/05/26 08:50:23;;;;;;;;;;;;;;;;;;5057280;28;28453;-90
2022/05/26 08:52:49;;;;;;;;;;;;;;;;;;5047605;28;27835;-93
2022/05/26 08:55:15;;;;;;;;;;;;;;;;;;5020679;28;29197;-95
2022/05/26 08:57:40;;;;;;;;;;;;;;;;;;5022194;28;29209;-93
2022/05/26 09:00:05;;;;;;;;;;;;;;;;;;5037371;28;28443;-93
2022/05/26 09:02:31;;;;;;;;;;;;;;;;;;5019392;28;28337;-90
2022/05/26 09:04:56;;;;;;;;;;;;;;;;;;5043010;28;28360;-90
2022/05/26 09:12:59;;;;;;;;;;;;;;;;;;5041881;28;28582;-87
2022/05/26 09:15:24;;;;;;;;;;;;;;;;;;5036569;28;29400;-86
2022/05/26 09:17:49;;;;;;;;;;;;;;;;;;5036909;28;28329;-90
2022/05/26 09:20:14;;;;;;;;;;;;;;;;;;5036587;28;28242;-90
2022/05/26 09:22:39;;;;;;;;;;;;;;;;;;5037020;28;28274;-92
2022/05/26 09:25:04;;;;;;;;;;;;;;;;;;5036771;28;28315;-88
2022/05/26 09:27:30;;;;;;;;;;;;;;;;;;5036563;28;31461;-89
2022/05/26 09:29:55;;;;;;;;;;;;;;;;;;5038412;28;28341;-87
2022/05/26 09:32:22;;;;;;;;;;;;;;;;;;5054743;28;28451;-85
2022/05/26 09:34:47;;;;;;;;;;;;;;;;;;5056093;28;29499;-88
2022/05/26 09:37:12;;;;;;;;;;;;;;;;;;5056527;28;28234;-86
2022/05/26 09:39:42;;;;;;;;;;;;;;;;;;5045158;28;28476;-88
2022/05/26 09:42:08;;;;;;;;;;;;;;;;;;5040179;28;28367;-90
2022/05/26 09:44:33;;;;;;;;;;;;;;;;;;5056059;28;28625;-86
2022/05/26 09:46:58;;;;;;;;;;;;;;;;;;5056292;28;28402;-89
2022/05/26 09:49:23;;;;;;;;;;;;;;;;;;5047774;28;28297;-88
2022/05/26 09:51:49;;;;;;;;;;;;;;;;;;5048675;28;28505;-86
2022/05/26 09:54:14;;;;;;;;;;;;;;;;;;5056186;28;28593;-87
2022/05/26 09:56:40;;;;;;;;;;;;;;;;;;5056100;28;28365;-86
2022/05/26 09:59:05;;;;;;;;;;;;;;;;;;5062060;28;28332;-95
2022/05/26 10:01:30;;;;;;;;;;;;;;;;;;5054842;28;28231;-87
2022/05/26 10:03:55;;;;;;;;;;;;;;;;;;5054936;28;28407;-85
2022/05/26 10:06:20;;;;;;;;;;;;;;;;;;5041148;28;28363;-89
2022/05/26 10:08:46;;;;;;;;;;;;;;;;;;5036160;28;28269;-88
2022/05/26 10:11:11;;;;;;;;;;;;;;;;;;5040885;28;28523;-88
2022/05/26 10:13:36;;;;;;;;;;;;;;;;;;5035423;28;28586;-87
2022/05/26 10:16:01;;;;;;;;;;;;;;;;;;5035154;28;28393;-89
2022/05/26 10:18:26;;;;;;;;;;;;;;;;;;5035926;28;28377;-85
2022/05/26 10:20:51;;;;;;;;;;;;;;;;;;5035477;28;29103;-86
2022/05/26 10:23:17;;;;;;;;;;;;;;;;;;5035329;28;29836;-88
2022/05/26 10:25:43;;;;;;;;;;;;;;;;;;5045793;28;28386;-87
2022/05/26 10:28:08;;;;;;;;;;;;;;;;;;5055595;28;28454;-85
2022/05/26 10:30:33;;;;;;;;;;;;;;;;;;5055641;28;28313;-86
2022/05/26 10:32:58;;;;;;;;;;;;;;;;;;5043604;28;28393;-86
2022/05/26 10:35:23;;;;;;;;;;;;;;;;;;5035868;28;28321;-86
2022/05/26 10:37:48;;;;;;;;;;;;;;;;;;5035118;28;28346;-87
2022/05/26 10:40:13;;;;;;;;;;;;;;;;;;5046217;28;28481;-86
2022/05/26 10:42:39;;;;;;;;;;;;;;;;;;5035489;28;28565;-83
2022/05/26 10:45:04;;;;;;;;;;;;;;;;;;5035140;28;28708;-86
2022/05/26 10:47:29;;;;;;;;;;;;;;;;;;5036244;28;28444;-86
2022/05/26 10:49:55;;;;;;;;;;;;;;;;;;5035833;28;28455;-91
2022/05/26 10:52:20;;;;;;;;;;;;;;;;;;5035550;28;28428;-87
2022/05/26 10:54:45;;;;;;;;;;;;;;;;;;5035955;28;28411;-93
2022/05/26 10:57:11;;;;;;;;;;;;;;;;;;5035392;28;28428;-89
2022/05/26 10:59:36;;;;;;;;;;;;;;;;;;5033108;28;28527;-85
2022/05/26 11:02:01;;;;;;;;;;;;;;;;;;5034601;28;28427;-86
2022/05/26 11:04:26;;;;;;;;;;;;;;;;;;5035259;28;28514;-86
2022/05/26 11:06:51;;;;;;;;;;;;;;;;;;5035116;28;28457;-86
2022/05/26 11:09:16;;;;;;;;;;;;;;;;;;5040634;28;28392;-87
2022/05/26 11:11:41;;;;;;;;;;;;;;;;;;5055248;28;28452;-87
2022/05/26 11:14:06;;;;;;;;;;;;;;;;;;5054758;28;28469;-89
2022/05/26 11:19:15;;;;;;;;;;;;;;;;;;5055486;28;28432;-89
2022/05/26 11:21:40;;;;;;;;;;;;;;;;;;5054831;28;29696;-89
2022/05/26 11:24:05;;;;;;;;;;;;;;;;;;5054607;28;28392;-87
2022/05/26 11:26:31;;;;;;;;;;;;;;;;;;5050568;28;28758;-92
2022/05/26 11:28:56;;;;;;;;;;;;;;;;;;5055485;28;28404;-89
2022/05/26 11:36:49;;;;;;;;;;;;;;;;;;5032242;28;28448;-88
2022/05/26 11:39:20;;;;;;;;;;;;;;;;;;5037220;28;28448;-93
2022/05/26 11:41:45;;;;;;;;;;;;;;;;;;5010332;28;30785;-90
2022/05/26 11:44:11;;;;;;;;;;;;;;;;;;5023927;28;28535;-89
2022/05/26 11:46:36;;;;;;;;;;;;;;;;;;5024386;28;28457;-86
2022/05/26 11:49:01;;;;;;;;;;;;;;;;;;5033937;28;28538;-87
2022/05/26 11:51:27;;;;;;;;;;;;;;;;;;5038033;28;28506;-93
2022/05/26 11:53:52;;;;;;;;;;;;;;;;;;5038690;28;28718;-87
2022/05/26 11:56:17;;;;;;;;;;;;;;;;;;5034061;28;28631;-89
2022/05/26 11:58:44;;;;;;;;;;;;;;;;;;5036677;28;28488;-88
2022/05/26 12:01:09;;;;;;;;;;;;;;;;;;5037715;28;28423;-88
2022/05/26 12:03:34;;;;;;;;;;;;;;;;;;5037897;28;28458;-92
2022/05/26 12:05:59;;;;;;;;;;;;;;;;;;5042571;28;28392;-87
2022/05/26 12:08:24;;;;;;;;;;;;;;;;;;5055237;28;28471;-87
2022/05/26 12:10:52;;;;;;;;;;;;;;;;;;5048972;28;28771;-93
2022/05/26 12:13:18;;;;;;;;;;;;;;;;;;5042079;28;28591;-90
2022/05/26 12:15:43;;;;;;;;;;;;;;;;;;5038034;28;28415;-90
2022/05/26 12:18:09;;;;;;;;;;;;;;;;;;5021482;28;28463;-92
2022/05/26 12:20:34;;;;;;;;;;;;;;;;;;5023047;28;29953;-88
2022/05/26 12:22:59;;;;;;;;;;;;;;;;;;5046420;28;28397;-90
2022/05/26 12:25:25;;;;;;;;;;;;;;;;;;5044692;28;28561;-89
2022/05/26 12:27:56;;;;;;;;;;;;;;;;;;5042880;28;27853;-87
2022/05/26 12:30:21;;;;;;;;;;;;;;;;;;5047404;28;28458;-91
2022/05/26 12:32:46;;;;;;;;;;;;;;;;;;5028977;28;28364;-86
2022/05/26 12:35:11;;;;;;;;;;;;;;;;;;5038279;28;28376;-86
2022/05/26 12:37:36;;;;;;;;;;;;;;;;;;5037555;28;28393;-86
2022/05/26 12:40:01;;;;;;;;;;;;;;;;;;5037102;28;29423;-86
2022/05/26 12:42:27;;;;;;;;;;;;;;;;;;5037607;28;31452;-86
2022/05/26 12:44:52;;;;;;;;;;;;;;;;;;5037292;28;27913;-86
2022/05/26 12:47:17;;;;;;;;;;;;;;;;;;5037294;28;28448;-86
2022/05/26 12:49:43;;;;;;;;;;;;;;;;;;5037402;28;28415;-86
2022/05/26 12:52:08;;;;;;;;;;;;;;;;;;5037160;28;28486;-86
2022/05/26 12:54:33;;;;;;;;;;;;;;;;;;5037275;28;28368;-85
2022/05/26 12:56:59;;;;;;;;;;;;;;;;;;5037338;28;28518;-85
2022/05/26 12:59:24;;;;;;;;;;;;;;;;;;5036970;28;28506;-85
2022/05/26 13:01:49;;;;;;;;;;;;;;;;;;5037196;28;28244;-85
2022/05/26 13:04:14;;;;;;;;;;;;;;;;;;5036935;28;28340;-85
2022/05/26 13:06:39;;;;;;;;;;;;;;;;;;5037363;28;28609;-86
2022/05/26 13:09:04;;;;;;;;;;;;;;;;;;5036099;28;29475;-85
2022/05/26 13:11:32;;;;;;;;;;;;;;;;;;5036136;28;28408;-85
2022/05/26 13:13:57;;;;;;;;;;;;;;;;;;5037012;28;28448;-85
2022/05/26 13:16:23;;;;;;;;;;;;;;;;;;5036963;28;28558;-85
2022/05/26 13:18:48;;;;;;;;;;;;;;;;;;5036661;28;29305;-85
2022/05/26 13:21:13;;;;;;;;;;;;;;;;;;5036763;28;28362;-85
2022/05/26 13:23:39;;;;;;;;;;;;;;;;;;5036869;28;28309;-85
2022/05/26 13:26:04;;;;;;;;;;;;;;;;;;5037012;28;28093;-86
2022/05/26 13:28:29;;;;;;;;;;;;;;;;;;5036514;28;28714;-85
2022/05/26 13:33:38;;;;;;;;;;;;;;;;;;5036568;28;28266;-85
2022/05/26 13:36:04;;;;;;;;;;;;;;;;;;5036711;28;35096;-85
2022/05/26 13:38:29;;;;;;;;;;;;;;;;;;5036806;28;29649;-86
2022/05/26 13:40:54;;;;;;;;;;;;;;;;;;5036521;28;28547;-86
2022/05/26 13:43:20;;;;;;;;;;;;;;;;;;5036585;28;28464;-85
2022/05/26 13:45:45;;;;;;;;;;;;;;;;;;5036662;28;28393;-85
2022/05/26 13:48:10;;;;;;;;;;;;;;;;;;5036265;28;29224;-85
2022/05/26 13:50:35;;;;;;;;;;;;;;;;;;5036601;28;28358;-86
2022/05/26 13:53:00;;;;;;;;;;;;;;;;;;5036050;28;28468;-86
2022/05/26 13:55:27;;;;;;;;;;;;;;;;;;5036411;28;28424;-85
2022/05/26 13:57:52;;;;;;;;;;;;;;;;;;5036371;28;29197;-85
2022/05/26 14:00:17;;;;;;;;;;;;;;;;;;5036061;28;28430;-86
2022/05/26 14:02:42;;;;;;;;;;;;;;;;;;5036289;28;28452;-86
2022/05/26 14:05:08;;;;;;;;;;;;;;;;;;5036220;28;28325;-86
2022/05/26 14:07:33;;;;;;;;;;;;;;;;;;5036122;28;28412;-86
2022/05/26 14:09:58;;;;;;;;;;;;;;;;;;5035808;28;28398;-86
2022/05/26 14:12:23;;;;;;;;;;;;;;;;;;5036222;28;28369;-85
2022/05/26 14:14:48;;;;;;;;;;;;;;;;;;5036251;28;28424;-85
2022/05/26 14:17:13;;;;;;;;;;;;;;;;;;5035751;28;28705;-85
2022/05/26 14:19:39;;;;;;;;;;;;;;;;;;5036210;28;28351;-85
2022/05/26 14:22:04;;;;;;;;;;;;;;;;;;5035968;28;28394;-85
2022/05/26 14:24:29;;;;;;;;;;;;;;;;;;5035943;28;35056;-85
2022/05/26 14:26:54;;;;;;;;;;;;;;;;;;5035803;28;28428;-85
2022/05/26 14:29:19;;;;;;;;;;;;;;;;;;5035729;28;28809;-85
2022/05/26 14:31:44;;;;;;;;;;;;;;;;;;5035963;28;28395;-85
2022/05/26 14:34:09;;;;;;;;;;;;;;;;;;5035717;28;28365;-85
2022/05/26 14:36:35;;;;;;;;;;;;;;;;;;5035581;28;28455;-85
2022/05/26 14:39:00;;;;;;;;;;;;;;;;;;5035770;28;28230;-85
2022/05/26 14:41:25;;;;;;;;;;;;;;;;;;5035604;28;27781;-85
2022/05/26 14:43:50;;;;;;;;;;;;;;;;;;5035783;28;28280;-85
2022/05/26 14:46:15;;;;;;;;;;;;;;;;;;5035478;28;29431;-85
2022/05/26 14:48:41;;;;;;;;;;;;;;;;;;5035549;28;28332;-85
2022/05/26 14:51:06;;;;;;;;;;;;;;;;;;5035698;28;28228;-84
2022/05/26 14:56:16;;;;;;;;;;;;;;;;;;5035345;28;28226;-85
2022/05/26 14:58:42;;;;;;;;;;;;;;;;;;5035428;28;28316;-85
2022/05/26 15:01:07;;;;;;;;;;;;;;;;;;5035311;28;28373;-85
2022/05/26 15:03:32;;;;;;;;;;;;;;;;;;5035459;28;28349;-85
2022/05/26 15:05:58;;;;;;;;;;;;;;;;;;5035316;28;29226;-84
2022/05/26 15:08:23;;;;;;;;;;;;;;;;;;5035167;28;28341;-84
2022/05/26 15:10:48;;;;;;;;;;;;;;;;;;5035210;28;28227;-84
2022/05/26 15:13:13;;;;;;;;;;;;;;;;;;5035237;28;28346;-84
2022/05/26 15:15:38;;;;;;;;;;;;;;;;;;5035284;28;28451;-85
2022/05/26 15:18:03;;;;;;;;;;;;;;;;;;5034631;28;28407;-91
2022/05/26 15:20:29;;;;;;;;;;;;;;;;;;5035103;28;28239;-88
2022/05/26 15:22:54;;;;;;;;;;;;;;;;;;5035477;28;35026;-89
2022/05/26 15:25:19;;;;;;;;;;;;;;;;;;5034864;28;28576;-84
2022/05/26 15:27:44;;;;;;;;;;;;;;;;;;5034467;28;27915;-86
2022/05/26 15:30:09;;;;;;;;;;;;;;;;;;5034414;28;27799;-85
2022/05/26 15:32:34;;;;;;;;;;;;;;;;;;5035028;28;27820;-85
2022/05/26 15:34:59;;;;;;;;;;;;;;;;;;5038143;28;29344;-85
2022/05/26 15:37:24;;;;;;;;;;;;;;;;;;5037980;28;28544;-89
2022/05/26 15:39:51;;;;;;;;;;;;;;;;;;5038027;28;28518;-90
2022/05/26 15:42:16;;;;;;;;;;;;;;;;;;5037940;28;28518;-88
2022/05/26 15:44:41;;;;;;;;;;;;;;;;;;5037725;28;28498;-86
2022/05/26 15:47:06;;;;;;;;;;;;;;;;;;5037693;28;28855;-86
2022/05/26 15:49:34;;;;;;;;;;;;;;;;;;5037835;28;28405;-86
2022/05/26 15:52:02;;;;;;;;;;;;;;;;;;5037861;28;28318;-87
2022/05/26 15:54:27;;;;;;;;;;;;;;;;;;5037542;28;28708;-87
2022/05/26 15:56:52;;;;;;;;;;;;;;;;;;5037614;28;28470;-86
2022/05/26 15:59:17;;;;;;;;;;;;;;;;;;5037784;28;28408;-86
2022/05/26 16:01:42;;;;;;;;;;;;;;;;;;5037627;28;28523;-86
2022/05/26 16:04:08;;;;;;;;;;;;;;;;;;5037232;28;28540;-85
2022/05/26 16:06:33;;;;;;;;;;;;;;;;;;5037548;28;28238;-84
2022/05/26 16:08:58;;;;;;;;;;;;;;;;;;5037128;28;28474;-85
2022/05/26 16:11:23;;;;;;;;;;;;;;;;;;5037442;28;28414;-84
2022/05/26 16:13:48;;;;;;;;;;;;;;;;;;5037209;28;28626;-84
2022/05/26 16:16:14;;;;;;;;;;;;;;;;;;5037481;28;28383;-85
2022/05/26 16:18:39;;;;;;;;;;;;;;;;;;5037274;28;28483;-84
2022/05/26 16:21:04;;;;;;;;;;;;;;;;;;5037081;28;28564;-84
2022/05/26 16:23:29;;;;;;;;;;;;;;;;;;5036548;28;28883;-84
2022/05/26 16:25:55;;;;;;;;;;;;;;;;;;5037128;28;28487;-85
2022/05/26 16:28:20;;;;;;;;;;;;;;;;;;5037331;28;28519;-84
2022/05/26 16:30:50;;;;;;;;;;;;;;;;;;5037101;28;28503;-85
2022/05/26 16:33:15;;;;;;;;;;;;;;;;;;5035686;28;28545;-84
2022/05/26 16:38:24;;;;;;;;;;;;;;;;;;5037255;28;28470;-85
2022/05/26 16:40:49;;;;;;;;;;;;;;;;;;5036995;28;28417;-84
2022/05/26 16:43:14;;;;;;;;;;;;;;;;;;5036992;28;29361;-86
2022/05/26 16:45:41;;;;;;;;;;;;;;;;;;5035390;28;28164;-85
2022/05/26 16:48:06;;;;;;;;;;;;;;;;;;5036807;28;28552;-86
2022/05/26 16:50:32;;;;;;;;;;;;;;;;;;5036749;28;28558;-85
2022/05/26 16:52:58;;;;;;;;;;;;;;;;;;5036538;28;28504;-83
2022/05/26 16:55:23;;;;;;;;;;;;;;;;;;5036605;28;28499;-83
2022/05/26 16:57:48;;;;;;;;;;;;;;;;;;5036630;28;28578;-83
2022/05/26 17:00:13;;;;;;;;;;;;;;;;;;5036651;28;28463;-82
2022/05/26 17:02:38;;;;;;;;;;;;;;;;;;5036526;28;29395;-82
2022/05/26 17:05:03;;;;;;;;;;;;;;;;;;5036245;28;28449;-81
2022/05/26 17:07:28;;;;;;;;;;;;;;;;;;5036809;28;27741;-82
2022/05/26 17:09:53;;;;;;;;;;;;;;;;;;5036185;28;28275;-84
2022/05/26 17:12:21;;;;;;;;;;;;;;;;;;5036239;28;28496;-83
2022/05/26 17:22:58;;;;;;;;;;;;;;;;;;5016132;28;28506;-83
2022/05/26 17:25:23;;;;;;;;;;;;;;;;;;5016374;28;28464;-82